Time;durP1;ratioP1;P1;durP2;ratioP2;P2;SDS_P1;SDS_P2;PMS_P1;PMS_P2;Temp;Humidity;BMP_temperature;BMP_pressure;BME280_temperature;BME280_humidity;BME280_pressure;Samples;Min_cycle;Max_cycle;Signal;HPM_P1;HPM_P2
2023/12/20 00:00:57;;;;;;;3.20;1.53;;;6.90;19.60;;;;;;5032679;28;20439;-70
2023/12/20 00:03:23;;;;;;;7.40;3.43;;;6.90;19.10;;;;;;5032333;28;20244;-70
2023/12/20 00:05:49;;;;;;;3.13;1.43;;;6.80;17.00;;;;;;5032390;28;20257;-71
2023/12/20 00:08:15;;;;;;;3.00;1.47;;;6.80;18.20;;;;;;5027779;28;20994;-69
2023/12/20 00:10:41;;;;;;;2.70;1.40;;;6.90;17.90;;;;;;5014000;28;20437;-69
2023/12/20 00:13:07;;;;;;;1.93;0.80;;;6.90;18.00;;;;;;5013001;28;20752;-70
2023/12/20 00:15:33;;;;;;;2.73;1.17;;;6.90;17.70;;;;;;5012829;28;20271;-70
2023/12/20 00:17:59;;;;;;;2.37;1.60;;;7.00;17.70;;;;;;4994859;28;20764;-69
2023/12/20 00:20:25;;;;;;;3.17;1.53;;;7.00;17.20;;;;;;4994756;28;20527;-71
2023/12/20 00:22:50;;;;;;;3.80;1.67;;;7.00;17.70;;;;;;5013071;28;20177;-70
2023/12/20 00:25:16;;;;;;;2.23;1.30;;;7.00;17.50;;;;;;5016203;28;20193;-71
2023/12/20 00:27:42;;;;;;;3.13;1.40;;;7.10;17.20;;;;;;5017654;28;20233;-71
2023/12/20 00:30:08;;;;;;;2.37;1.10;;;7.20;16.80;;;;;;5022112;28;20199;-71
2023/12/20 00:32:35;;;;;;;1.70;0.77;;;7.10;16.60;;;;;;5013564;28;20268;-71
2023/12/20 00:35:01;;;;;;;2.63;1.63;;;7.20;16.70;;;;;;4995546;28;20479;-70
2023/12/20 00:37:26;;;;;;;2.40;1.30;;;7.20;16.80;;;;;;5015184;28;20426;-71
2023/12/20 00:39:52;;;;;;;2.00;1.10;;;7.30;16.40;;;;;;5014498;28;20216;-70
2023/12/20 00:42:17;;;;;;;2.00;1.10;;;7.30;16.20;;;;;;5012221;28;20189;-69
2023/12/20 00:44:43;;;;;;;3.70;0.93;;;7.30;16.00;;;;;;5012101;28;20196;-69
2023/12/20 00:47:08;;;;;;;3.00;1.43;;;7.20;17.00;;;;;;5026759;28;20699;-69
2023/12/20 00:49:34;;;;;;;3.40;1.90;;;7.20;16.60;;;;;;5031293;28;20710;-70
2023/12/20 00:52:00;;;;;;;4.17;1.97;;;7.10;17.20;;;;;;5031556;28;20182;-70
2023/12/20 00:54:25;;;;;;;3.53;2.40;;;7.10;17.20;;;;;;5014362;28;20614;-71
2023/12/20 00:56:51;;;;;;;3.73;1.67;;;7.10;16.60;;;;;;5014673;28;20182;-71
2023/12/20 00:59:17;;;;;;;2.50;1.50;;;7.10;17.50;;;;;;5054368;23;20465;-71
2023/12/20 01:01:43;;;;;;;2.80;1.77;;;7.10;17.00;;;;;;5013977;28;20189;-71
2023/12/20 01:04:09;;;;;;;2.70;1.40;;;7.00;16.90;;;;;;5031847;28;20773;-70
2023/12/20 01:06:34;;;;;;;3.93;2.00;;;7.00;17.20;;;;;;5031965;28;20206;-71
2023/12/20 01:09:00;;;;;;;2.67;1.60;;;6.90;16.90;;;;;;5031965;28;20182;-70
2023/12/20 01:11:25;;;;;;;3.50;2.10;;;7.00;16.70;;;;;;5032356;28;20218;-71
2023/12/20 01:13:51;;;;;;;4.63;1.77;;;7.00;16.90;;;;;;5032882;28;20177;-71
2023/12/20 01:16:16;;;;;;;1.97;1.10;;;6.90;17.10;;;;;;5032080;28;20679;-71
2023/12/20 01:18:42;;;;;;;2.17;1.27;;;6.90;16.80;;;;;;5014781;28;20214;-71
2023/12/20 01:21:07;;;;;;;2.60;1.60;;;6.90;17.10;;;;;;5032308;28;20206;-70
2023/12/20 01:23:33;;;;;;;2.77;1.30;;;6.80;16.80;;;;;;5032520;28;20198;-71
2023/12/20 01:26:02;;;;;;;1.70;1.00;;;6.80;16.80;;;;;;5022475;28;20281;-71
2023/12/20 01:28:28;;;;;;;2.50;1.40;;;6.80;16.40;;;;;;5012537;28;20179;-70
2023/12/20 01:30:53;;;;;;;2.20;1.10;;;6.70;16.50;;;;;;4994949;28;20444;-70
2023/12/20 01:33:19;;;;;;;2.50;1.40;;;6.80;15.60;;;;;;4995498;28;20268;-70
2023/12/20 01:35:44;;;;;;;3.43;1.27;;;6.80;16.40;;;;;;5012595;28;20184;-71
2023/12/20 01:38:10;;;;;;;2.33;1.40;;;6.80;16.40;;;;;;4995325;28;20185;-70
2023/12/20 01:40:36;;;;;;;2.30;1.20;;;6.80;16.40;;;;;;5012658;28;20189;-71
2023/12/20 01:43:06;;;;;;;3.13;1.30;;;6.80;16.40;;;;;;4995077;28;20222;-70
2023/12/20 01:45:32;;;;;;;2.50;1.20;;;6.80;17.20;;;;;;5012766;28;20210;-71
2023/12/20 01:47:59;;;;;;;1.87;1.00;;;6.90;17.40;;;;;;5013019;28;20424;-71
2023/12/20 01:50:24;;;;;;;2.23;1.03;;;6.90;17.60;;;;;;5012900;28;20201;-70
2023/12/20 01:52:52;;;;;;;2.03;1.00;;;6.90;17.70;;;;;;5012965;28;20832;-70
2023/12/20 01:55:21;;;;;;;2.80;1.10;;;6.90;18.00;;;;;;5019751;28;20169;-70
2023/12/20 01:57:47;;;;;;;1.80;0.80;;;6.90;19.30;;;;;;5018571;28;20481;-72
2023/12/20 02:00:14;;;;;;;1.80;0.87;;;6.90;19.40;;;;;;5018186;28;20455;-70
2023/12/20 02:02:40;;;;;;;2.30;1.00;;;6.80;20.30;;;;;;5035691;28;20256;-70
2023/12/20 02:05:07;;;;;;;1.90;0.90;;;6.60;22.60;;;;;;5017974;28;20428;-70
2023/12/20 02:07:35;;;;;;;2.27;0.97;;;6.70;22.50;;;;;;5036108;28;20541;-71
2023/12/20 02:10:02;;;;;;;1.80;0.70;;;6.70;23.00;;;;;;5018394;28;20449;-71
2023/12/20 02:12:27;;;;;;;2.60;1.30;;;6.70;22.90;;;;;;5018426;28;20431;-71
2023/12/20 02:14:54;;;;;;;2.03;0.77;;;6.60;24.70;;;;;;5035902;28;20406;-71
2023/12/20 02:17:20;;;;;;;2.00;0.87;;;6.50;26.00;;;;;;5035802;28;20531;-71
2023/12/20 02:19:45;;;;;;;1.60;0.70;;;6.40;27.30;;;;;;5018246;28;20448;-70
2023/12/20 02:22:11;;;;;;;1.70;0.70;;;6.40;28.30;;;;;;5018210;28;20426;-70
2023/12/20 02:24:38;;;;;;;1.70;0.60;;;6.40;28.40;;;;;;5035954;28;20179;-71
2023/12/20 02:27:06;;;;;;;2.10;1.07;;;6.20;29.50;;;;;;5017956;28;20446;-71
2023/12/20 02:29:35;;;;;;;1.93;0.70;;;6.30;30.40;;;;;;5035726;28;21003;-70
2023/12/20 02:32:01;;;;;;;1.93;0.90;;;6.10;31.90;;;;;;5035440;28;20410;-70
2023/12/20 02:34:27;;;;;;;2.10;0.70;;;6.10;34.60;;;;;;5018588;28;20415;-70
2023/12/20 02:36:52;;;;;;;2.50;0.83;;;6.10;35.50;;;;;;5035666;28;20470;-70
2023/12/20 02:39:19;;;;;;;1.90;0.90;;;6.10;36.30;;;;;;5017907;28;20200;-71
2023/12/20 02:41:44;;;;;;;2.10;1.17;;;6.10;36.20;;;;;;5038695;28;20196;-70
2023/12/20 02:44:10;;;;;;;2.00;0.90;;;6.10;36.50;;;;;;5037877;28;20419;-71
2023/12/20 02:46:35;;;;;;;2.40;1.07;;;6.10;37.50;;;;;;5035193;28;20207;-71
2023/12/20 02:49:01;;;;;;;2.00;1.00;;;6.10;36.80;;;;;;5018467;28;20196;-71
2023/12/20 02:51:27;;;;;;;2.10;0.67;;;6.00;37.90;;;;;;5015667;28;20226;-70
2023/12/20 02:53:52;;;;;;;2.60;1.30;;;6.00;38.80;;;;;;4997400;28;20180;-71
2023/12/20 02:56:18;;;;;;;1.90;1.13;;;6.00;38.60;;;;;;5024506;28;20274;-71
2023/12/20 02:58:43;;;;;;;1.93;1.00;;;6.00;38.90;;;;;;5016379;28;20230;-71
2023/12/20 03:01:09;;;;;;;2.73;0.87;;;6.00;39.50;;;;;;5035161;28;20220;-70
2023/12/20 03:03:35;;;;;;;1.90;1.00;;;6.00;38.90;;;;;;5035502;28;20178;-70
2023/12/20 03:06:00;;;;;;;3.20;1.20;;;6.00;39.70;;;;;;5010210;28;20438;-71
2023/12/20 03:08:26;;;;;;;3.00;1.20;;;6.10;39.10;;;;;;4998280;28;20252;-71
2023/12/20 03:10:53;;;;;;;2.20;0.60;;;6.20;39.00;;;;;;4998304;28;20309;-71
2023/12/20 03:13:19;;;;;;;3.33;0.90;;;6.20;37.00;;;;;;4998147;28;20183;-71
2023/12/20 03:15:45;;;;;;;1.70;0.73;;;6.20;37.10;;;;;;4997930;28;20446;-71
2023/12/20 03:18:10;;;;;;;2.43;1.13;;;6.10;37.30;;;;;;5015099;28;20500;-71
2023/12/20 03:20:36;;;;;;;1.47;0.57;;;6.10;36.60;;;;;;5015359;28;20436;-71
2023/12/20 03:23:01;;;;;;;1.83;0.80;;;6.10;37.90;;;;;;5014681;28;20188;-70
2023/12/20 03:25:27;;;;;;;2.00;0.73;;;6.20;36.70;;;;;;5017137;28;20521;-70
2023/12/20 03:27:53;;;;;;;2.07;0.80;;;6.20;37.40;;;;;;5016703;28;20171;-70
2023/12/20 03:30:19;;;;;;;2.33;0.90;;;6.20;36.70;;;;;;5034464;28;20216;-71
2023/12/20 03:32:45;;;;;;;1.60;0.70;;;6.20;37.50;;;;;;5034558;28;20670;-71
2023/12/20 03:35:10;;;;;;;1.87;0.80;;;6.10;37.30;;;;;;5019374;28;20178;-71
2023/12/20 03:37:36;;;;;;;1.50;0.70;;;6.10;39.00;;;;;;4996127;28;20430;-71
2023/12/20 03:40:02;;;;;;;1.53;0.67;;;6.20;39.10;;;;;;5013410;28;20207;-71
2023/12/20 03:42:28;;;;;;;1.60;0.77;;;6.20;37.60;;;;;;5013709;28;20258;-71
2023/12/20 03:44:53;;;;;;;2.50;0.77;;;6.20;37.80;;;;;;5024127;28;20474;-70
2023/12/20 03:47:19;;;;;;;3.23;1.00;;;6.20;37.90;;;;;;5033343;28;20241;-71
2023/12/20 03:49:44;;;;;;;1.60;0.60;;;6.20;37.80;;;;;;5015631;28;20330;-71
2023/12/20 03:52:10;;;;;;;1.70;0.63;;;6.20;39.10;;;;;;5033501;28;20180;-71
2023/12/20 03:54:36;;;;;;;1.80;0.93;;;6.10;39.60;;;;;;5033516;28;20185;-70
2023/12/20 03:57:01;;;;;;;2.90;0.70;;;6.30;39.30;;;;;;5033726;28;20187;-71
2023/12/20 03:59:27;;;;;;;1.93;0.80;;;6.10;40.00;;;;;;5015047;28;20667;-71
2023/12/20 04:01:52;;;;;;;1.70;0.87;;;6.10;41.00;;;;;;5032798;28;20220;-70
2023/12/20 04:04:18;;;;;;;1.60;0.90;;;6.20;40.30;;;;;;5032713;28;20179;-71
2023/12/20 04:06:44;;;;;;;5.03;1.17;;;6.10;41.20;;;;;;5033411;28;20288;-70
2023/12/20 04:09:10;;;;;;;1.60;0.70;;;6.10;41.60;;;;;;5015924;28;20482;-70
2023/12/20 04:11:36;;;;;;;1.50;0.60;;;6.10;41.70;;;;;;5015818;28;20181;-71
2023/12/20 04:14:02;;;;;;;1.50;0.60;;;6.10;42.50;;;;;;5030283;28;20190;-71
2023/12/20 04:16:27;;;;;;;1.40;0.60;;;6.10;42.10;;;;;;5019855;28;20534;-71
2023/12/20 04:18:53;;;;;;;1.50;0.50;;;6.00;41.90;;;;;;5032953;28;20186;-70
2023/12/20 04:21:18;;;;;;;1.40;0.50;;;6.00;43.10;;;;;;5032533;28;20180;-70
2023/12/20 04:23:44;;;;;;;1.53;0.63;;;6.00;41.80;;;;;;5032406;28;20175;-70
2023/12/20 04:26:10;;;;;;;2.83;0.70;;;5.90;40.40;;;;;;5032438;28;20302;-71
2023/12/20 04:28:35;;;;;;;2.13;0.90;;;5.90;41.50;;;;;;5014756;28;20184;-71
2023/12/20 04:31:01;;;;;;;1.40;0.50;;;5.90;41.80;;;;;;5033894;28;20434;-71
2023/12/20 04:33:27;;;;;;;2.40;0.93;;;5.90;43.00;;;;;;5019203;28;20202;-72
2023/12/20 04:35:52;;;;;;;2.23;0.70;;;5.90;44.10;;;;;;5015015;28;20191;-72
2023/12/20 04:38:18;;;;;;;2.27;0.83;;;5.90;45.70;;;;;;5013986;28;20176;-73
2023/12/20 04:40:43;;;;;;;3.00;1.10;;;5.90;45.40;;;;;;5013293;28;20279;-73
2023/12/20 04:43:09;;;;;;;3.27;1.40;;;5.90;44.60;;;;;;5012855;28;20218;-73
2023/12/20 04:45:35;;;;;;;4.43;1.77;;;5.90;43.90;;;;;;5027404;28;20191;-73
2023/12/20 04:48:02;;;;;;;4.10;1.57;;;5.90;44.90;;;;;;5032104;28;20922;-73
2023/12/20 04:50:27;;;;;;;7.70;1.50;;;5.90;44.70;;;;;;5033684;28;20556;-73
2023/12/20 04:52:53;;;;;;;1.93;0.70;;;5.90;42.90;;;;;;5033827;28;20410;-73
2023/12/20 04:55:18;;;;;;;2.13;0.90;;;5.80;43.70;;;;;;5033094;28;20194;-73
2023/12/20 04:57:44;;;;;;;1.40;0.57;;;5.90;44.30;;;;;;5033205;28;20666;-71
2023/12/20 05:00:10;;;;;;;1.70;0.70;;;5.80;43.30;;;;;;5032881;28;20220;-71
2023/12/20 05:02:36;;;;;;;1.60;0.70;;;5.80;44.60;;;;;;5034398;28;20685;-71
2023/12/20 05:05:02;;;;;;;2.67;0.67;;;5.70;43.90;;;;;;5006194;28;20465;-70
2023/12/20 05:07:27;;;;;;;1.60;0.70;;;5.70;45.30;;;;;;4997566;28;20459;-71
2023/12/20 05:09:53;;;;;;;1.40;0.53;;;5.80;45.70;;;;;;5026314;28;20230;-71
2023/12/20 05:12:19;;;;;;;1.57;0.50;;;5.80;43.60;;;;;;5033305;28;20175;-71
2023/12/20 05:14:44;;;;;;;1.40;0.50;;;5.80;43.50;;;;;;5032579;28;20218;-71
2023/12/20 05:17:10;;;;;;;1.30;0.50;;;5.80;42.10;;;;;;5032288;28;20177;-71
2023/12/20 05:19:35;;;;;;;1.70;0.70;;;5.80;40.90;;;;;;5032037;28;20196;-71
2023/12/20 05:22:02;;;;;;;1.30;0.40;;;5.80;41.10;;;;;;5032690;28;20222;-71
2023/12/20 05:24:27;;;;;;;1.80;0.97;;;5.80;40.00;;;;;;5032716;28;20720;-71
2023/12/20 05:26:53;;;;;;;1.60;0.63;;;5.90;38.80;;;;;;5014964;28;20545;-70
2023/12/20 05:29:18;;;;;;;2.27;0.90;;;5.70;38.70;;;;;;5016103;28;20655;-71
2023/12/20 05:31:44;;;;;;;1.40;0.50;;;5.80;39.00;;;;;;5017945;28;20263;-70
2023/12/20 05:34:09;;;;;;;1.50;0.60;;;5.80;39.10;;;;;;5017512;28;20612;-70
2023/12/20 05:36:36;;;;;;;1.90;0.60;;;5.80;39.40;;;;;;5007994;28;20204;-70
2023/12/20 05:39:03;;;;;;;3.77;0.90;;;5.80;39.60;;;;;;5034546;28;20221;-71
2023/12/20 05:41:28;;;;;;;2.40;0.50;;;5.80;38.80;;;;;;5037344;28;20778;-71
2023/12/20 05:43:54;;;;;;;1.60;0.50;;;5.80;38.80;;;;;;5036140;28;20429;-71
2023/12/20 05:46:21;;;;;;;1.60;0.60;;;5.70;38.70;;;;;;5034587;28;20621;-70
2023/12/20 05:48:46;;;;;;;1.50;0.57;;;5.80;38.80;;;;;;5016745;28;20537;-71
2023/12/20 05:51:13;;;;;;;1.77;0.63;;;5.70;38.70;;;;;;5029189;28;20423;-71
2023/12/20 05:53:38;;;;;;;1.90;0.90;;;5.70;38.70;;;;;;5017790;28;20183;-70
2023/12/20 05:56:04;;;;;;;2.33;0.67;;;5.70;39.50;;;;;;5035967;28;20429;-70
2023/12/20 05:58:32;;;;;;;3.03;0.87;;;5.60;39.60;;;;;;5035960;28;20180;-71
2023/12/20 06:00:57;;;;;;;1.80;0.70;;;5.60;40.50;;;;;;5016721;28;20450;-71
2023/12/20 06:03:23;;;;;;;1.73;0.67;;;5.60;40.50;;;;;;5034697;28;20935;-71
2023/12/20 06:05:48;;;;;;;2.00;0.70;;;5.60;41.00;;;;;;5034555;28;20241;-71
2023/12/20 06:08:14;;;;;;;2.63;0.70;;;5.80;40.50;;;;;;5016669;28;20199;-71
2023/12/20 06:10:40;;;;;;;2.27;0.70;;;5.80;40.40;;;;;;5015331;28;20208;-71
2023/12/20 06:13:06;;;;;;;1.97;0.50;;;5.90;38.80;;;;;;5015405;28;20253;-71
2023/12/20 06:15:32;;;;;;;1.60;0.80;;;5.80;37.10;;;;;;5015325;28;20173;-71
2023/12/20 06:17:58;;;;;;;1.40;0.53;;;5.80;38.40;;;;;;5015281;28;20497;-70
2023/12/20 06:20:23;;;;;;;1.50;0.63;;;5.70;38.70;;;;;;5014938;28;20910;-71
2023/12/20 06:22:49;;;;;;;3.20;0.93;;;5.70;40.40;;;;;;5015048;28;20636;-71
2023/12/20 06:25:15;;;;;;;1.80;0.73;;;5.70;40.20;;;;;;5015033;28;20260;-71
2023/12/20 06:27:41;;;;;;;1.87;1.03;;;5.70;39.40;;;;;;5028390;28;20454;-72
2023/12/20 06:30:09;;;;;;;1.47;0.67;;;5.60;40.90;;;;;;5018427;28;20286;-74
2023/12/20 06:32:35;;;;;;;2.43;0.90;;;5.70;41.70;;;;;;5033706;28;20917;-73
2023/12/20 06:35:01;;;;;;;2.37;0.90;;;5.70;41.70;;;;;;5016381;28;20475;-73
2023/12/20 06:37:26;;;;;;;1.90;0.83;;;5.70;41.30;;;;;;5033693;28;20512;-74
2023/12/20 06:39:52;;;;;;;1.90;0.83;;;5.70;42.20;;;;;;5033385;28;20921;-74
2023/12/20 06:42:17;;;;;;;1.60;0.60;;;5.80;42.00;;;;;;5015909;28;20179;-74
2023/12/20 06:44:43;;;;;;;1.80;0.90;;;5.80;40.70;;;;;;5033754;28;20180;-74
2023/12/20 06:47:08;;;;;;;1.60;0.67;;;5.90;40.70;;;;;;5020637;28;20283;-74
2023/12/20 06:49:34;;;;;;;2.37;0.70;;;6.00;38.90;;;;;;5014912;28;20200;-74
2023/12/20 06:51:59;;;;;;;1.40;0.50;;;5.90;37.60;;;;;;5016598;28;20675;-74
2023/12/20 06:54:25;;;;;;;2.63;1.03;;;5.90;38.80;;;;;;4998291;28;20181;-74
2023/12/20 06:56:50;;;;;;;1.60;0.80;;;5.90;38.80;;;;;;5023578;28;20723;-75
2023/12/20 06:59:16;;;;;;;1.80;0.73;;;5.90;38.80;;;;;;5039077;22;20241;-73
2023/12/20 07:01:42;;;;;;;1.77;0.83;;;5.90;38.80;;;;;;5032916;28;20191;-73
2023/12/20 07:04:08;;;;;;;1.73;0.73;;;5.90;38.20;;;;;;5033329;28;20171;-71
2023/12/20 07:06:33;;;;;;;1.73;0.83;;;5.90;38.50;;;;;;5040465;28;20202;-71
2023/12/20 07:08:59;;;;;;;1.90;0.97;;;5.90;38.80;;;;;;5052408;28;20426;-71
2023/12/20 07:11:26;;;;;;;1.53;0.67;;;6.00;37.60;;;;;;5033807;28;20196;-70
2023/12/20 07:13:51;;;;;;;1.60;0.80;;;6.00;37.80;;;;;;5032860;28;20163;-71
2023/12/20 07:16:17;;;;;;;3.00;0.90;;;5.90;36.30;;;;;;5032063;28;20414;-71
2023/12/20 07:18:42;;;;;;;1.97;0.97;;;5.90;37.80;;;;;;5032504;28;20272;-70
2023/12/20 07:21:08;;;;;;;2.17;0.90;;;5.90;37.10;;;;;;5032642;28;20196;-70
2023/12/20 07:23:35;;;;;;;1.50;0.60;;;5.90;36.90;;;;;;5040883;28;20588;-71
2023/12/20 07:26:00;;;;;;;1.90;0.80;;;6.00;36.60;;;;;;5029759;28;20618;-71
2023/12/20 07:28:26;;;;;;;1.60;0.83;;;6.10;35.80;;;;;;5012615;28;20457;-71
2023/12/20 07:30:51;;;;;;;1.50;0.80;;;6.00;36.00;;;;;;5012461;28;20509;-71
2023/12/20 07:33:17;;;;;;;1.40;0.50;;;6.00;35.10;;;;;;5012988;28;20651;-69
2023/12/20 07:35:42;;;;;;;1.93;0.80;;;6.00;35.10;;;;;;5014625;28;20173;-70
2023/12/20 07:38:08;;;;;;;2.23;0.90;;;6.00;37.00;;;;;;5031953;28;20199;-70
2023/12/20 07:40:34;;;;;;;1.83;0.73;;;6.00;36.20;;;;;;5032202;28;20191;-70
2023/12/20 07:42:59;;;;;;;1.80;0.60;;;6.00;36.80;;;;;;5032262;28;20175;-70
2023/12/20 07:45:25;;;;;;;1.87;0.90;;;6.00;37.40;;;;;;5031630;28;20224;-70
2023/12/20 07:47:50;;;;;;;1.50;0.50;;;6.10;36.70;;;;;;5023523;28;20942;-70
2023/12/20 07:50:16;;;;;;;1.53;0.60;;;6.10;35.60;;;;;;5008900;28;20196;-70
2023/12/20 07:52:41;;;;;;;1.40;0.53;;;6.10;35.70;;;;;;5007665;28;20172;-70
2023/12/20 07:55:07;;;;;;;1.60;0.50;;;6.00;35.30;;;;;;5008601;28;20733;-70
2023/12/20 07:57:33;;;;;;;1.93;0.83;;;6.00;36.10;;;;;;5003972;28;20244;-70
2023/12/20 07:59:58;;;;;;;1.70;0.70;;;6.10;36.10;;;;;;5027177;28;20504;-70
2023/12/20 08:02:24;;;;;;;1.50;0.70;;;6.00;36.30;;;;;;4988556;28;20205;-69
2023/12/20 08:04:50;;;;;;;1.60;0.70;;;6.00;37.10;;;;;;4988196;28;20673;-69
2023/12/20 08:07:15;;;;;;;1.63;0.60;;;6.10;38.60;;;;;;5014542;28;20212;-69
2023/12/20 08:09:41;;;;;;;1.90;0.80;;;6.20;36.20;;;;;;5025453;28;20284;-69
2023/12/20 08:12:07;;;;;;;1.70;0.70;;;6.10;36.50;;;;;;5018566;28;20189;-70
2023/12/20 08:14:32;;;;;;;1.60;0.70;;;6.10;36.10;;;;;;5029883;28;20187;-69
2023/12/20 08:16:58;;;;;;;1.70;0.60;;;6.10;36.60;;;;;;5023055;28;20448;-68
2023/12/20 08:19:23;;;;;;;3.13;0.97;;;6.20;36.40;;;;;;5013317;28;20682;-68
2023/12/20 08:21:49;;;;;;;1.83;0.63;;;6.10;36.60;;;;;;5023160;28;20208;-69
2023/12/20 08:24:14;;;;;;;2.43;0.80;;;6.10;35.30;;;;;;5021236;28;20238;-69
2023/12/20 08:26:40;;;;;;;2.70;1.53;;;6.20;36.30;;;;;;5026230;28;20209;-69
2023/12/20 08:29:06;;;;;;;2.20;0.80;;;6.20;34.80;;;;;;5028171;28;20186;-69
2023/12/20 08:31:32;;;;;;;1.70;0.97;;;6.30;34.10;;;;;;5013466;28;20709;-69
2023/12/20 08:33:58;;;;;;;1.83;0.70;;;6.20;35.80;;;;;;5031417;28;20418;-69
2023/12/20 08:36:23;;;;;;;1.87;0.90;;;6.30;34.80;;;;;;5028493;28;20181;-69
2023/12/20 08:38:49;;;;;;;1.90;0.93;;;6.40;34.90;;;;;;5011315;28;20203;-71
2023/12/20 08:41:17;;;;;;;1.80;0.77;;;6.30;33.20;;;;;;5013766;28;20200;-69
2023/12/20 08:43:42;;;;;;;3.10;1.00;;;6.30;33.30;;;;;;5024778;28;20549;-70
2023/12/20 08:46:09;;;;;;;2.43;1.17;;;6.20;34.10;;;;;;5030869;28;20520;-70
2023/12/20 08:48:35;;;;;;;2.60;1.10;;;6.20;35.70;;;;;;5029124;28;20206;-70
2023/12/20 08:51:01;;;;;;;1.57;0.57;;;6.20;36.20;;;;;;5025579;28;20479;-70
2023/12/20 08:53:26;;;;;;;1.90;0.73;;;6.30;36.20;;;;;;5032067;28;20173;-69
2023/12/20 08:55:52;;;;;;;4.13;0.80;;;6.30;35.40;;;;;;5013371;28;20190;-70
2023/12/20 08:58:18;;;;;;;2.33;0.93;;;6.40;35.40;;;;;;5021987;28;20318;-69
2023/12/20 09:00:43;;;;;;;2.17;0.80;;;6.50;35.10;;;;;;5013091;28;20683;-69
2023/12/20 09:03:09;;;;;;;1.40;0.57;;;6.50;32.40;;;;;;5033531;28;20193;-70
2023/12/20 09:05:35;;;;;;;1.90;0.90;;;6.50;32.70;;;;;;5034855;28;20187;-69
2023/12/20 09:08:00;;;;;;;1.90;0.70;;;6.50;33.10;;;;;;5017014;28;20425;-69
2023/12/20 09:10:26;;;;;;;2.13;1.03;;;6.40;32.80;;;;;;5017204;28;20216;-70
2023/12/20 09:12:56;;;;;;;2.00;0.80;;;6.40;33.00;;;;;;5034750;28;20185;-69
2023/12/20 09:15:26;;;;;;;1.60;0.90;;;6.50;33.30;;;;;;5029104;28;20513;-70
2023/12/20 09:17:52;;;;;;;1.70;0.87;;;6.50;34.60;;;;;;4999146;28;20778;-70
2023/12/20 09:20:18;;;;;;;3.00;1.10;;;6.50;33.80;;;;;;4996428;28;20451;-69
2023/12/20 09:22:44;;;;;;;2.00;1.10;;;6.60;34.30;;;;;;5013304;28;20432;-69
2023/12/20 09:25:11;;;;;;;3.13;1.03;;;6.60;35.00;;;;;;5013581;28;20290;-69
2023/12/20 09:27:36;;;;;;;1.63;1.03;;;6.60;34.00;;;;;;5024769;28;20196;-69
2023/12/20 09:30:03;;;;;;;2.00;1.30;;;6.50;33.40;;;;;;5032717;28;20435;-70
2023/12/20 09:32:29;;;;;;;2.60;1.57;;;6.30;30.30;;;;;;5028799;28;20173;-69
2023/12/20 09:34:55;;;;;;;2.30;1.30;;;6.20;31.10;;;;;;5016648;28;20422;-69
2023/12/20 09:37:20;;;;;;;2.50;1.40;;;6.10;31.70;;;;;;5034597;28;20183;-69
2023/12/20 09:39:46;;;;;;;2.43;1.30;;;6.00;30.40;;;;;;5034205;28;20208;-69
2023/12/20 09:42:15;;;;;;;2.87;1.60;;;5.90;29.30;;;;;;5034714;28;20219;-68
2023/12/20 09:44:42;;;;;;;2.77;1.70;;;5.90;28.50;;;;;;5024105;28;20206;-69
2023/12/20 09:47:08;;;;;;;2.53;1.30;;;6.00;27.40;;;;;;5001161;28;20459;-69
2023/12/20 09:49:35;;;;;;;1.90;1.20;;;5.90;24.70;;;;;;5014468;28;20438;-70
2023/12/20 09:52:01;;;;;;;2.93;1.63;;;5.90;23.70;;;;;;5014855;28;20416;-69
2023/12/20 09:54:28;;;;;;;4.00;2.00;;;5.80;24.50;;;;;;5014641;28;20426;-70
2023/12/20 09:56:54;;;;;;;3.20;1.90;;;5.70;23.50;;;;;;5014595;28;20420;-69
2023/12/20 09:59:20;;;;;;;5.97;2.60;;;5.70;24.80;;;;;;5014366;28;20422;-70
2023/12/20 10:01:45;;;;;;;3.00;1.83;;;5.60;22.40;;;;;;5015102;28;20433;-69
2023/12/20 10:04:13;;;;;;;5.77;2.33;;;5.60;21.40;;;;;;5014839;28;20192;-70
2023/12/20 10:06:42;;;;;;;2.53;1.80;;;5.60;20.60;;;;;;5011527;28;21407;-70
2023/12/20 10:09:09;;;;;;;5.20;2.33;;;5.60;21.00;;;;;;4991871;28;20834;-70
2023/12/20 10:11:39;;;;;;;4.70;1.97;;;5.60;21.20;;;;;;5010054;28;20471;-70
2023/12/20 10:14:06;;;;;;;3.23;2.40;;;5.60;20.50;;;;;;5010115;28;20477;-70
2023/12/20 10:16:32;;;;;;;7.27;2.23;;;5.70;21.80;;;;;;5010374;28;20812;-70
2023/12/20 10:18:59;;;;;;;3.90;2.20;;;5.90;20.70;;;;;;5009624;28;20435;-70
2023/12/20 10:21:26;;;;;;;6.30;2.20;;;5.80;20.10;;;;;;5010340;28;20477;-70
2023/12/20 10:23:53;;;;;;;2.53;1.40;;;5.70;19.60;;;;;;5010421;28;20431;-70
2023/12/20 10:26:22;;;;;;;3.77;2.00;;;5.70;19.80;;;;;;5009777;28;20894;-70
2023/12/20 10:28:55;;;;;;;2.23;1.30;;;5.60;19.40;;;;;;4992500;28;20427;-71
2023/12/20 10:31:30;;;;;;;2.27;1.53;;;5.50;20.50;;;;;;5010466;28;20450;-73
2023/12/20 10:34:00;;;;;;;4.00;1.87;;;5.50;20.50;;;;;;5011031;28;20431;-72
2023/12/20 10:36:33;;;;;;;2.23;1.37;;;5.40;22.50;;;;;;5008679;28;20430;-72
2023/12/20 10:38:59;;;;;;;3.80;2.23;;;5.40;22.70;;;;;;5010891;28;20421;-71
2023/12/20 10:41:32;;;;;;;2.30;1.70;;;5.40;23.00;;;;;;5009532;28;20435;-71
2023/12/20 10:44:02;;;;;;;4.23;2.00;;;5.40;22.90;;;;;;5009829;28;20431;-71
2023/12/20 10:46:29;;;;;;;4.40;1.50;;;5.40;20.40;;;;;;5010382;28;20474;-71
2023/12/20 10:48:56;;;;;;;3.30;1.57;;;5.40;18.90;;;;;;5009626;28;20434;-70
2023/12/20 10:51:23;;;;;;;3.70;1.60;;;5.30;17.80;;;;;;4991775;28;20435;-70
2023/12/20 10:53:50;;;;;;;6.77;1.63;;;5.20;16.10;;;;;;5010587;28;20489;-70
2023/12/20 10:56:18;;;;;;;4.73;1.80;;;5.20;17.20;;;;;;5009922;28;20849;-71
2023/12/20 10:58:44;;;;;;;8.40;1.93;;;5.20;18.20;;;;;;5013599;28;20415;-70
2023/12/20 11:01:14;;;;;;;3.10;1.87;;;5.30;17.00;;;;;;5013478;28;20459;-70
2023/12/20 11:03:49;;;;;;;6.33;2.67;;;5.40;16.20;;;;;;5013665;28;20760;-70
2023/12/20 11:06:54;;;;;;;4.77;1.70;;;5.40;16.80;;;;;;5013316;28;20450;-70
2023/12/20 11:10:09;;;;;;;2.40;1.60;;;5.50;16.20;;;;;;4914162;29;20988;-68
2023/12/20 11:12:48;;;;;;;3.00;1.40;;;5.50;15.90;;;;;;4891639;29;20446;-68
2023/12/20 11:15:15;;;;;;;5.93;1.57;;;5.50;13.60;;;;;;5002369;28;20797;-69
2023/12/20 11:17:44;;;;;;;4.90;1.23;;;5.50;14.50;;;;;;5013362;28;20847;-69
2023/12/20 11:20:11;;;;;;;6.50;2.20;;;5.50;11.90;;;;;;5012943;28;20439;-69
2023/12/20 11:22:38;;;;;;;7.63;1.90;;;5.60;12.00;;;;;;4995622;28;20420;-69
2023/12/20 11:25:05;;;;;;;2.40;1.00;;;5.70;11.00;;;;;;5012761;28;20783;-70
2023/12/20 11:27:32;;;;;;;4.27;1.23;;;5.90;9.30;;;;;;4995063;28;20555;-69
2023/12/20 11:29:58;;;;;;;2.40;1.53;;;5.90;9.20;;;;;;5013214;28;20423;-70
2023/12/20 11:32:29;;;;;;;3.03;1.57;;;6.00;9.50;;;;;;5013181;28;20780;-70
2023/12/20 11:35:15;;;;;;;3.50;1.40;;;6.10;9.10;;;;;;5013028;28;20445;-69
2023/12/20 11:37:42;;;;;;;3.23;1.40;;;6.30;7.20;;;;;;4995681;28;20433;-69
2023/12/20 11:40:12;;;;;;;4.63;1.53;;;6.40;7.40;;;;;;5012483;28;20432;-69
2023/12/20 11:42:39;;;;;;;5.40;1.50;;;6.30;6.30;;;;;;5012738;28;20411;-70
2023/12/20 11:45:05;;;;;;;3.13;1.47;;;6.30;6.20;;;;;;5012476;28;20404;-69
2023/12/20 11:47:32;;;;;;;2.90;1.40;;;6.40;5.50;;;;;;5012676;28;20459;-70
2023/12/20 11:49:57;;;;;;;2.63;1.13;;;6.50;5.80;;;;;;5012539;28;20503;-68
2023/12/20 11:52:23;;;;;;;4.43;2.13;;;6.60;4.90;;;;;;5012717;28;20868;-69
2023/12/20 11:54:48;;;;;;;2.63;1.50;;;6.70;3.80;;;;;;5012486;28;20192;-68
2023/12/20 11:57:14;;;;;;;2.93;1.50;;;6.70;3.80;;;;;;5012580;28;20648;-69
2023/12/20 11:59:40;;;;;;;2.50;1.47;;;6.80;3.90;;;;;;5012193;28;20273;-69
2023/12/20 12:02:05;;;;;;;8.97;1.87;;;6.90;3.00;;;;;;4994884;28;20228;-69
2023/12/20 12:04:31;;;;;;;6.93;2.10;;;7.00;3.80;;;;;;5012582;28;20183;-69
2023/12/20 12:06:57;;;;;;;8.87;2.50;;;7.00;2.80;;;;;;5012701;28;20555;-70
2023/12/20 12:09:22;;;;;;;5.37;2.10;;;7.10;2.60;;;;;;5012012;28;20184;-69
2023/12/20 12:11:48;;;;;;;7.07;2.80;;;7.20;1.50;;;;;;5012309;28;20618;-69
2023/12/20 12:14:14;;;;;;;38.63;13.70;;;7.10;1.50;;;;;;5012085;28;20696;-69
2023/12/20 12:16:41;;;;;;;10.40;4.30;;;7.00;1.90;;;;;;5011951;28;20233;-70
2023/12/20 12:19:19;;;;;;;14.83;3.90;;;6.80;1.50;;;;;;5012037;28;20417;-70
2023/12/20 12:21:45;;;;;;;11.57;4.40;;;6.50;1.30;;;;;;5012126;28;20408;-69
2023/12/20 12:24:11;;;;;;;6.20;2.03;;;6.40;1.60;;;;;;5012022;28;20426;-69
2023/12/20 12:26:36;;;;;;;8.03;3.30;;;6.40;2.10;;;;;;5011689;28;20197;-70
2023/12/20 12:29:02;;;;;;;4.03;2.03;;;6.30;2.30;;;;;;5011537;28;20407;-69
2023/12/20 12:31:28;;;;;;;3.00;1.77;;;6.30;1.40;;;;;;5011831;28;20256;-70
2023/12/20 12:33:53;;;;;;;3.03;1.73;;;6.40;2.20;;;;;;5011841;28;20420;-70
2023/12/20 12:36:19;;;;;;;5.37;1.70;;;6.30;1.80;;;;;;5011895;28;20174;-70
2023/12/20 12:38:44;;;;;;;4.37;2.27;;;6.10;1.00;;;;;;5011313;28;20641;-69
2023/12/20 12:41:13;;;;;;;8.03;2.70;;;6.10;1.00;;;;;;5011923;28;20199;-70
2023/12/20 12:43:38;;;;;;;7.37;2.10;;;6.00;1.00;;;;;;5012173;28;20181;-69
2023/12/20 12:46:04;;;;;;;7.60;1.80;;;6.00;1.00;;;;;;5011654;28;20452;-71
2023/12/20 12:48:31;;;;;;;5.30;3.00;;;6.00;1.00;;;;;;5011687;28;20649;-70
2023/12/20 12:50:59;;;;;;;4.37;2.20;;;6.00;1.00;;;;;;5011643;28;20427;-70
2023/12/20 12:53:26;;;;;;;8.73;1.77;;;6.00;1.10;;;;;;5011772;28;20176;-71